Time;durP1;ratioP1;P1;durP2;ratioP2;P2;SDS_P1;SDS_P2;PMS_P1;PMS_P2;Temp;Humidity;BMP_temperature;BMP_pressure;BME280_temperature;BME280_humidity;BME280_pressure;Samples;Min_cycle;Max_cycle;Signal;HPM_P1;HPM_P2
2021/12/06 00:00:28;;;;;;;44.00;21.07;;;;;;;-0.91;100.00;100193.81;5005331;28;20209;-86
2021/12/06 00:02:57;;;;;;;50.07;21.67;;;;;;;-0.94;100.00;100188.66;5005186;28;20224;-83
2021/12/06 00:05:25;;;;;;;46.23;21.93;;;;;;;-0.97;100.00;100197.16;5007410;28;20213;-85
2021/12/06 00:07:52;;;;;;;45.90;21.43;;;;;;;-0.94;100.00;100198.03;5003313;28;20208;-85
2021/12/06 00:10:18;;;;;;;44.77;20.97;;;;;;;-0.93;100.00;100194.63;5007095;28;20270;-87
2021/12/06 00:12:46;;;;;;;46.87;21.37;;;;;;;-0.92;100.00;100199.75;5013944;28;20208;-84
2021/12/06 00:15:13;;;;;;;49.30;21.47;;;;;;;-0.92;100.00;100197.22;5007873;28;20289;-83
2021/12/06 00:17:40;;;;;;;45.57;20.70;;;;;;;-0.93;100.00;100199.75;5008295;28;20263;-90
2021/12/06 00:20:10;;;;;;;44.17;20.60;;;;;;;-0.94;100.00;100200.59;5008462;28;20204;-84
2021/12/06 00:22:37;;;;;;;44.53;20.90;;;;;;;-0.91;100.00;100210.88;5009983;28;20200;-84
2021/12/06 00:25:05;;;;;;;43.10;20.60;;;;;;;-0.92;100.00;100210.00;5006285;28;20608;-85
2021/12/06 00:27:32;;;;;;;44.97;21.40;;;;;;;-0.92;100.00;100199.75;5019602;28;20276;-84
2021/12/06 00:29:59;;;;;;;44.40;20.23;;;;;;;-0.96;100.00;100206.53;5008287;28;20297;-86
2021/12/06 00:32:26;;;;;;;45.10;20.73;;;;;;;-0.94;100.00;100221.06;5011363;28;20209;-85
2021/12/06 00:34:53;;;;;;;47.70;22.33;;;;;;;-0.93;100.00;100226.22;5008929;28;20640;-87
2021/12/06 00:37:23;;;;;;;42.77;20.53;;;;;;;-0.90;100.00;100230.50;5007932;28;20216;-84
2021/12/06 00:39:52;;;;;;;49.00;21.60;;;;;;;-0.89;100.00;100227.13;5012053;28;20196;-87
2021/12/06 00:42:21;;;;;;;45.77;21.40;;;;;;;-0.89;100.00;100230.53;5019697;28;20649;-86
2021/12/06 00:44:47;;;;;;;45.40;20.73;;;;;;;-0.90;100.00;100236.47;5019811;28;20235;-87
2021/12/06 00:47:15;;;;;;;46.23;20.93;;;;;;;-0.88;100.00;100241.63;5018697;28;20209;-86
2021/12/06 00:49:44;;;;;;;44.30;20.77;;;;;;;-0.88;100.00;100242.50;5012237;28;20207;-88
2021/12/06 00:52:11;;;;;;;41.97;20.43;;;;;;;-0.88;100.00;100244.19;5017935;28;20205;-87
2021/12/06 00:54:37;;;;;;;38.30;19.53;;;;;;;-0.84;100.00;100251.09;5017556;28;20236;-87
2021/12/06 00:57:07;;;;;;;41.33;20.10;;;;;;;-0.83;100.00;100255.34;5019376;28;20204;-85
2021/12/06 00:59:33;;;;;;;44.43;21.80;;;;;;;-0.81;100.00;100262.22;5021090;28;20204;-86
2021/12/06 01:02:01;;;;;;;42.07;20.83;;;;;;;-0.82;100.00;100257.09;5034596;28;20189;-86
2021/12/06 01:04:33;;;;;;;42.67;21.10;;;;;;;-0.84;100.00;100264.75;5033839;28;20304;-84
2021/12/06 01:07:00;;;;;;;41.00;20.23;;;;;;;-0.85;100.00;100264.72;5009644;28;20208;-83
2021/12/06 01:09:27;;;;;;;44.50;20.23;;;;;;;-0.83;100.00;100269.00;5024811;28;20205;-89
2021/12/06 01:11:53;;;;;;;41.40;21.70;;;;;;;-0.85;100.00;100273.25;5023516;28;20285;-87
2021/12/06 01:14:20;;;;;;;46.07;20.00;;;;;;;-0.84;100.00;100269.00;5023571;28;20743;-88
2021/12/06 01:16:46;;;;;;;42.67;21.23;;;;;;;-0.84;100.00;100271.56;5020720;28;20288;-83
2021/12/06 01:19:15;;;;;;;44.40;20.30;;;;;;;-0.82;100.00;100269.88;5015405;28;20301;-83
2021/12/06 01:21:48;;;;;;;42.93;21.47;;;;;;;-0.80;100.00;100270.75;5002622;28;20197;-84
2021/12/06 01:24:17;;;;;;;39.07;19.60;;;;;;;-0.78;100.00;100271.63;5003771;28;20232;-82
2021/12/06 01:27:08;;;;;;;40.73;20.37;;;;;;;-0.75;100.00;100276.81;4999445;28;20211;-82
2021/12/06 01:32:46;;;;;;;47.77;22.13;;;;;;;-0.80;100.00;100278.44;4974767;28;20231;-82
2021/12/06 01:40:39;;;;;;;43.00;20.63;;;;;;;-0.82;100.00;100280.13;4999108;28;20204;-82
2021/12/06 01:43:06;;;;;;;35.87;19.63;;;;;;;-0.81;100.00;100284.38;5003493;28;20782;-82
2021/12/06 01:45:33;;;;;;;40.10;19.70;;;;;;;-0.81;100.00;100282.72;5001965;28;20204;-84
2021/12/06 01:47:59;;;;;;;41.57;19.97;;;;;;;-0.82;100.00;100282.69;5001975;28;20314;-82
2021/12/06 01:50:28;;;;;;;42.33;19.43;;;;;;;-0.83;100.00;100284.34;4999709;28;20250;-82
2021/12/06 01:52:59;;;;;;;41.33;21.07;;;;;;;-0.85;100.00;100283.47;5002437;28;20235;-82
2021/12/06 01:55:28;;;;;;;45.33;20.97;;;;;;;-0.87;100.00;100290.28;4999983;28;20217;-82
2021/12/06 01:57:56;;;;;;;41.07;20.27;;;;;;;-0.87;100.00;100294.56;5001450;28;20288;-82
2021/12/06 02:00:28;;;;;;;40.57;20.67;;;;;;;-0.87;100.00;100295.41;4998313;28;20213;-82
2021/12/06 02:03:01;;;;;;;41.07;19.17;;;;;;;-0.87;100.00;100297.13;4994875;28;20231;-82
2021/12/06 02:05:36;;;;;;;41.70;19.73;;;;;;;-0.85;100.00;100300.56;5016200;28;20196;-84
2021/12/06 02:08:08;;;;;;;41.37;20.83;;;;;;;-0.88;100.00;100297.94;4997407;28;20196;-82
2021/12/06 02:10:36;;;;;;;40.10;18.83;;;;;;;-0.89;100.00;100302.19;5001158;28;20687;-83
2021/12/06 02:13:07;;;;;;;40.93;19.70;;;;;;;-0.89;100.00;100304.75;4998153;28;20228;-84
2021/12/06 02:15:41;;;;;;;39.90;19.37;;;;;;;-0.90;100.00;100302.19;4989367;28;20247;-88
2021/12/06 02:18:16;;;;;;;43.33;19.87;;;;;;;-0.92;100.00;100307.28;4997909;28;20209;-82
2021/12/06 02:20:48;;;;;;;41.60;19.73;;;;;;;-0.91;100.00;100318.38;4995628;28;20221;-86
2021/12/06 02:23:19;;;;;;;36.70;18.77;;;;;;;-0.93;100.00;100317.47;4994648;28;20237;-83
2021/12/06 02:25:46;;;;;;;40.03;20.27;;;;;;;-0.98;100.00;100317.44;4998144;28;20283;-82
2021/12/06 02:28:13;;;;;;;43.77;19.73;;;;;;;-0.96;100.00;100311.47;5002456;28;20203;-82
2021/12/06 02:30:40;;;;;;;41.03;20.50;;;;;;;-0.96;100.00;100320.88;4993438;28;20212;-82
2021/12/06 02:33:06;;;;;;;39.70;19.03;;;;;;;-0.96;100.00;100321.72;5000871;28;20220;-83
2021/12/06 02:35:34;;;;;;;38.63;19.23;;;;;;;-1.00;100.00;100327.63;4998250;28;20606;-82
2021/12/06 02:38:07;;;;;;;40.30;19.47;;;;;;;-1.02;100.00;100326.75;4999291;28;20607;-84
2021/12/06 02:40:39;;;;;;;36.60;18.57;;;;;;;-1.01;100.00;100325.91;4994362;28;20213;-87
2021/12/06 02:43:09;;;;;;;37.03;18.20;;;;;;;-1.02;100.00;100329.31;4999730;28;20224;-83
2021/12/06 02:45:36;;;;;;;41.07;19.40;;;;;;;-1.04;100.00;100335.22;4996347;28;20610;-83
2021/12/06 02:48:07;;;;;;;39.07;17.77;;;;;;;-1.04;100.00;100340.34;4994396;28;20192;-82
2021/12/06 02:50:49;;;;;;;39.57;18.87;;;;;;;-1.08;100.00;100344.56;4999081;28;20217;-85
2021/12/06 02:53:18;;;;;;;36.37;18.67;;;;;;;-1.06;100.00;100345.44;5004071;28;20224;-86
2021/12/06 02:55:51;;;;;;;39.87;19.07;;;;;;;-1.06;100.00;100348.00;4996992;28;20233;-83
2021/12/06 02:58:45;;;;;;;40.67;19.03;;;;;;;-1.06;100.00;100345.44;5003145;28;20793;-85
2021/12/06 03:01:13;;;;;;;37.73;18.10;;;;;;;-1.06;100.00;100349.69;4999686;28;20230;-82
2021/12/06 03:03:40;;;;;;;35.13;17.43;;;;;;;-1.05;100.00;100361.66;5001446;28;20283;-82
2021/12/06 03:06:11;;;;;;;40.47;19.27;;;;;;;-1.05;100.00;100354.84;5000982;28;20243;-82
2021/12/06 03:08:39;;;;;;;40.73;18.60;;;;;;;-1.04;100.00;100361.69;4996781;28;20201;-82
2021/12/06 03:11:11;;;;;;;38.47;18.63;;;;;;;-1.04;100.00;100361.69;5002555;28;20209;-82
2021/12/06 03:13:37;;;;;;;37.90;18.33;;;;;;;-1.05;100.00;100364.22;5000491;28;20225;-84
2021/12/06 03:16:05;;;;;;;37.87;17.80;;;;;;;-1.05;100.00;100371.91;5005424;28;20231;-84
2021/12/06 03:18:32;;;;;;;39.30;19.03;;;;;;;-1.08;100.00;100372.69;5000089;28;20216;-83
2021/12/06 03:20:59;;;;;;;40.77;18.77;;;;;;;-1.06;100.00;100370.16;5003613;28;20197;-83
2021/12/06 03:23:26;;;;;;;35.43;17.80;;;;;;;-1.07;100.00;100377.00;5002136;28;20905;-83
2021/12/06 03:25:53;;;;;;;34.20;17.23;;;;;;;-1.06;100.00;100375.28;5006026;28;20296;-82
2021/12/06 03:28:21;;;;;;;41.30;19.47;;;;;;;-1.06;100.00;100372.72;4997714;28;20212;-82
2021/12/06 03:30:48;;;;;;;35.73;18.50;;;;;;;-1.10;100.00;100378.63;5003790;28;20212;-83
2021/12/06 03:33:14;;;;;;;35.50;18.43;;;;;;;-1.12;100.00;100378.59;5000667;28;20504;-83
2021/12/06 03:35:41;;;;;;;39.03;18.40;;;;;;;-1.10;100.00;100381.19;5003455;28;20362;-82
2021/12/06 03:38:09;;;;;;;39.87;19.53;;;;;;;-1.09;100.00;100388.91;4996930;28;20205;-83
2021/12/06 03:40:35;;;;;;;39.70;18.23;;;;;;;-1.11;100.00;100382.03;5009137;28;21772;-83
2021/12/06 03:43:02;;;;;;;40.77;19.00;;;;;;;-1.10;100.00;100389.72;5002530;28;20295;-82
2021/12/06 03:45:35;;;;;;;42.77;19.93;;;;;;;-1.13;100.00;100396.50;5003639;28;20207;-82
2021/12/06 03:48:01;;;;;;;40.90;20.60;;;;;;;-1.14;100.00;100390.53;4994935;28;20206;-82
2021/12/06 03:50:30;;;;;;;42.10;20.23;;;;;;;-1.08;100.00;100390.63;4999859;28;20213;-84
2021/12/06 03:52:56;;;;;;;42.93;20.43;;;;;;;-1.07;100.00;100394.03;5001700;28;20324;-83
2021/12/06 03:55:23;;;;;;;46.33;21.17;;;;;;;-1.10;100.00;100399.97;4998463;28;20210;-84
2021/12/06 03:57:50;;;;;;;45.67;21.53;;;;;;;-1.14;100.00;100403.31;5004172;28;20204;-84
2021/12/06 04:00:18;;;;;;;37.60;19.13;;;;;;;-1.15;100.00;100397.31;5000807;28;21062;-82
2021/12/06 04:02:52;;;;;;;47.40;22.07;;;;;;;-1.16;100.00;100402.44;5000278;28;20221;-83
2021/12/06 04:05:21;;;;;;;46.13;22.67;;;;;;;-1.18;100.00;100404.06;5003451;28;20212;-82
2021/12/06 04:07:48;;;;;;;44.13;21.10;;;;;;;-1.20;100.00;100404.03;5003971;28;20719;-83
2021/12/06 04:10:15;;;;;;;45.07;23.63;;;;;;;-1.20;100.00;100409.16;4999650;28;20291;-86
2021/12/06 04:12:42;;;;;;;48.10;23.40;;;;;;;-1.19;100.00;100410.03;5000989;28;20468;-83
2021/12/06 04:15:12;;;;;;;46.87;24.47;;;;;;;-1.22;100.00;100408.28;4999545;28;20228;-82
2021/12/06 04:17:40;;;;;;;46.87;22.90;;;;;;;-1.23;100.00;100409.13;4998315;28;20201;-84
2021/12/06 04:20:11;;;;;;;45.30;23.87;;;;;;;-1.24;100.00;100414.22;4998289;28;20224;-82
2021/12/06 04:22:39;;;;;;;47.00;23.47;;;;;;;-1.23;100.00;100421.03;4993788;28;20214;-82
2021/12/06 04:25:09;;;;;;;49.03;24.07;;;;;;;-1.23;100.00;100424.47;5000072;28;20857;-82
2021/12/06 04:27:37;;;;;;;48.93;24.13;;;;;;;-1.26;100.00;100423.56;5000091;28;20707;-82
2021/12/06 04:30:07;;;;;;;52.13;25.00;;;;;;;-1.27;100.00;100426.94;4998894;28;20198;-83
2021/12/06 04:32:35;;;;;;;46.43;22.60;;;;;;;-1.28;100.00;100431.19;4999139;28;20292;-86
2021/12/06 04:35:03;;;;;;;52.80;24.67;;;;;;;-1.28;100.00;100435.47;5000778;28;20287;-84
2021/12/06 04:37:32;;;;;;;48.53;23.80;;;;;;;-1.28;100.00;100435.47;4998746;28;20213;-82
2021/12/06 04:39:59;;;;;;;47.57;24.40;;;;;;;-1.27;100.00;100447.41;5000925;28;20765;-83
2021/12/06 04:42:26;;;;;;;55.10;26.37;;;;;;;-1.28;100.00;100450.81;5000506;28;20216;-84
2021/12/06 04:44:52;;;;;;;61.77;28.33;;;;;;;-1.28;100.00;100453.38;5002612;28;20705;-84
2021/12/06 04:47:19;;;;;;;54.93;27.37;;;;;;;-1.31;100.00;100451.59;4997462;28;20204;-84
2021/12/06 04:49:46;;;;;;;52.37;26.13;;;;;;;-1.30;100.00;100460.13;4998274;28;20236;-82
2021/12/06 04:52:14;;;;;;;57.63;26.60;;;;;;;-1.30;100.00;100455.91;4997689;28;20300;-85
2021/12/06 04:54:46;;;;;;;56.83;27.63;;;;;;;-1.33;100.00;100458.38;5002119;28;20220;-82
2021/12/06 04:57:19;;;;;;;51.53;25.00;;;;;;;-1.37;100.00;100460.03;4998781;28;20216;-82
2021/12/06 04:59:49;;;;;;;56.23;23.63;;;;;;;-1.34;100.00;100461.75;4993072;28;20267;-83
2021/12/06 05:02:21;;;;;;;56.87;26.67;;;;;;;-1.35;100.00;100466.03;4995503;28;20219;-85
2021/12/06 05:04:50;;;;;;;50.70;25.60;;;;;;;-1.33;100.00;100466.91;5003473;28;20707;-83
2021/12/06 05:07:20;;;;;;;54.27;25.40;;;;;;;-1.36;100.00;100471.09;4999682;28;20735;-84
2021/12/06 05:09:49;;;;;;;53.93;25.83;;;;;;;-1.35;100.00;100476.25;5000899;28;20247;-86
2021/12/06 05:12:22;;;;;;;52.60;25.80;;;;;;;-1.38;100.00;100481.31;4997766;28;20216;-84
2021/12/06 05:14:49;;;;;;;56.70;25.37;;;;;;;-1.39;100.00;100482.16;5000944;28;20232;-84
2021/12/06 05:17:15;;;;;;;55.10;26.33;;;;;;;-1.38;100.00;100481.31;4995626;28;20237;-82
2021/12/06 05:19:42;;;;;;;55.03;26.20;;;;;;;-1.40;100.00;100477.84;4980484;28;20223;-82
2021/12/06 05:22:10;;;;;;;57.13;27.13;;;;;;;-1.37;100.00;100485.59;5007784;28;20228;-82
2021/12/06 05:24:37;;;;;;;52.53;25.00;;;;;;;-1.39;100.00;100484.72;5015941;28;20220;-85
2021/12/06 05:27:06;;;;;;;56.17;26.30;;;;;;;-1.37;100.00;100489.88;5015642;28;20198;-82
2021/12/06 05:29:35;;;;;;;59.83;26.17;;;;;;;-1.38;100.00;100488.13;5013524;28;20215;-84
2021/12/06 05:32:03;;;;;;;56.20;26.00;;;;;;;-1.41;100.00;100499.13;5016618;28;20196;-82
2021/12/06 05:34:35;;;;;;;52.73;26.47;;;;;;;-1.39;100.00;100494.94;5012164;28;20231;-83
2021/12/06 05:37:04;;;;;;;54.80;25.77;;;;;;;-1.40;100.00;100503.44;5018479;28;20218;-82
2021/12/06 05:39:31;;;;;;;51.57;25.80;;;;;;;-1.41;100.00;100505.97;5015503;28;20208;-81
2021/12/06 05:41:58;;;;;;;56.60;24.97;;;;;;;-1.40;100.00;100517.94;5014276;28;20729;-81
2021/12/06 05:44:26;;;;;;;53.50;25.63;;;;;;;-1.40;100.00;100517.94;5017121;28;20219;-82
2021/12/06 05:46:52;;;;;;;59.40;26.27;;;;;;;-1.41;100.00;100519.59;5015607;28;20232;-81
2021/12/06 05:49:19;;;;;;;58.83;26.37;;;;;;;-1.41;100.00;100532.38;5012624;28;20214;-82
2021/12/06 05:51:45;;;;;;;56.40;25.87;;;;;;;-1.41;100.00;100529.81;5017232;28;20199;-82
2021/12/06 05:54:11;;;;;;;52.63;26.70;;;;;;;-1.41;100.00;100531.53;5010551;28;20232;-81
2021/12/06 05:56:38;;;;;;;58.77;26.33;;;;;;;-1.41;100.00;100534.94;5015998;28;20226;-86
2021/12/06 05:59:04;;;;;;;56.50;25.73;;;;;;;-1.44;100.00;100537.47;5014823;28;20606;-85
2021/12/06 06:01:32;;;;;;;51.70;25.17;;;;;;;-1.42;100.00;100532.38;5014385;28;20211;-82
2021/12/06 06:04:01;;;;;;;53.13;25.73;;;;;;;-1.40;100.00;100544.34;5014372;28;20234;-81
2021/12/06 06:06:29;;;;;;;52.93;25.63;;;;;;;-1.41;100.00;100539.22;5015685;28;20235;-86
2021/12/06 06:08:55;;;;;;;55.47;25.97;;;;;;;-1.43;100.00;100546.84;5011500;28;20785;-84
2021/12/06 06:11:22;;;;;;;51.77;24.93;;;;;;;-1.48;100.00;100547.59;5013544;28;20207;-82
2021/12/06 06:13:48;;;;;;;55.40;26.57;;;;;;;-1.45;100.00;100543.41;5014825;28;20239;-81
2021/12/06 06:16:18;;;;;;;53.23;25.77;;;;;;;-1.44;100.00;100552.81;5014950;28;20307;-82
2021/12/06 06:18:46;;;;;;;57.03;25.50;;;;;;;-1.45;100.00;100551.06;5016441;28;20255;-82
2021/12/06 06:21:12;;;;;;;54.87;26.07;;;;;;;-1.44;100.00;100557.94;5017472;28;20207;-82
2021/12/06 06:23:39;;;;;;;46.53;25.50;;;;;;;-1.44;100.00;100562.16;5019183;28;20227;-83
2021/12/06 06:26:05;;;;;;;48.03;23.90;;;;;;;-1.43;100.00;100563.91;5016470;28;20201;-84
2021/12/06 06:28:31;;;;;;;53.03;25.43;;;;;;;-1.47;100.00;100562.97;5018784;28;20736;-82
2021/12/06 06:30:58;;;;;;;48.47;24.13;;;;;;;-1.46;100.00;100567.25;5017926;28;20214;-82
2021/12/06 06:33:24;;;;;;;55.40;26.37;;;;;;;-1.48;100.00;100579.13;5021469;28;20666;-83
2021/12/06 06:35:52;;;;;;;53.37;26.10;;;;;;;-1.50;100.00;100577.38;5013767;28;20663;-82
2021/12/06 06:38:20;;;;;;;53.50;25.73;;;;;;;-1.48;100.00;100578.28;5016679;28;20671;-82
2021/12/06 06:40:47;;;;;;;55.03;27.70;;;;;;;-1.50;100.00;100573.13;5015467;28;20261;-82
2021/12/06 06:43:13;;;;;;;48.43;24.47;;;;;;;-1.50;100.00;100580.78;5019609;28;20222;-83
2021/12/06 06:45:40;;;;;;;53.87;25.63;;;;;;;-1.52;100.00;100580.75;5014628;28;20208;-84
2021/12/06 06:48:06;;;;;;;49.60;25.07;;;;;;;-1.54;100.00;100590.09;5022063;28;20200;-82
2021/12/06 06:50:33;;;;;;;56.93;25.83;;;;;;;-1.56;100.00;100586.63;5017201;28;20208;-81
2021/12/06 06:53:01;;;;;;;54.07;25.57;;;;;;;-1.55;100.00;100590.06;5017961;28;20794;-85
2021/12/06 06:55:28;;;;;;;55.13;25.47;;;;;;;-1.56;100.00;100588.34;5016989;28;20212;-84
2021/12/06 06:57:54;;;;;;;56.40;26.10;;;;;;;-1.57;100.00;100590.00;5021006;28;20224;-83
2021/12/06 07:00:23;;;;;;;48.70;24.37;;;;;;;-1.53;100.00;100596.06;5012905;28;20722;-83
2021/12/06 07:02:50;;;;;;;56.60;26.40;;;;;;;-1.54;100.00;100599.47;5016092;28;20397;-83
2021/12/06 07:05:17;;;;;;;51.83;25.97;;;;;;;-1.59;100.00;100603.59;5018051;28;20215;-85
2021/12/06 07:07:43;;;;;;;48.33;24.23;;;;;;;-1.56;100.00;100601.13;5016770;28;20203;-82
2021/12/06 07:10:12;;;;;;;50.10;25.77;;;;;;;-1.57;100.00;100601.94;5018473;28;20862;-82
2021/12/06 07:12:44;;;;;;;55.20;26.50;;;;;;;-1.57;100.00;100605.34;5019321;28;20208;-85
2021/12/06 07:15:13;;;;;;;48.87;24.27;;;;;;;-1.57;100.00;100601.94;5014791;28;21009;-83
2021/12/06 07:17:40;;;;;;;52.80;26.20;;;;;;;-1.59;100.00;100609.56;5015915;28;20228;-84
2021/12/06 07:20:07;;;;;;;54.00;24.90;;;;;;;-1.59;100.00;100603.59;5018360;28;20524;-82
2021/12/06 07:22:34;;;;;;;46.33;23.73;;;;;;;-1.55;100.00;100607.94;5014732;28;20208;-85
2021/12/06 07:25:01;;;;;;;55.53;25.63;;;;;;;-1.56;100.00;100613.91;5021702;28;20204;-84
2021/12/06 07:27:28;;;;;;;48.83;24.70;;;;;;;-1.56;100.00;100612.22;5017079;28;20204;-86
2021/12/06 07:29:55;;;;;;;47.57;23.53;;;;;;;-1.55;100.00;100608.84;5018332;28;20204;-81
2021/12/06 07:32:21;;;;;;;51.83;25.47;;;;;;;-1.55;100.00;100615.63;5017481;28;20266;-81
2021/12/06 07:34:50;;;;;;;49.53;25.17;;;;;;;-1.54;100.00;100615.66;5022067;28;20220;-83
2021/12/06 07:37:16;;;;;;;50.07;23.90;;;;;;;-1.54;100.00;100618.22;5019163;28;20236;-84
2021/12/06 07:39:42;;;;;;;56.67;25.43;;;;;;;-1.56;100.00;100619.88;5018371;28;20207;-83
2021/12/06 07:42:12;;;;;;;50.40;24.60;;;;;;;-1.53;100.00;100613.97;5020036;28;20570;-82
2021/12/06 07:44:40;;;;;;;54.70;24.43;;;;;;;-1.50;100.00;100615.75;5026814;28;20231;-85
2021/12/06 07:47:08;;;;;;;51.57;24.27;;;;;;;-1.50;100.00;100624.28;5021932;28;20254;-83
2021/12/06 07:49:35;;;;;;;49.33;24.13;;;;;;;-1.50;100.00;100631.94;5018579;28;20204;-84
2021/12/06 07:52:01;;;;;;;51.87;23.77;;;;;;;-1.50;100.00;100633.63;5018294;28;20692;-81
2021/12/06 07:54:27;;;;;;;51.33;24.57;;;;;;;-1.49;100.00;100632.81;5015326;28;20220;-82
2021/12/06 07:56:54;;;;;;;52.10;25.13;;;;;;;-1.48;100.00;100635.38;5018774;28;20388;-82
2021/12/06 07:59:20;;;;;;;56.10;25.37;;;;;;;-1.48;100.00;100632.84;5019525;28;20302;-83
2021/12/06 08:01:48;;;;;;;48.80;25.10;;;;;;;-1.44;100.00;100636.31;5020109;28;20698;-84
2021/12/06 08:04:15;;;;;;;62.07;26.10;;;;;;;-1.45;100.00;100644.84;5015499;28;20231;-84
2021/12/06 08:06:41;;;;;;;49.53;25.63;;;;;;;-1.45;100.00;100648.25;5017190;28;20204;-85
2021/12/06 08:09:08;;;;;;;54.97;24.33;;;;;;;-1.44;100.00;100655.13;5022230;28;20211;-84
2021/12/06 08:11:35;;;;;;;54.17;26.53;;;;;;;-1.43;100.00;100661.94;5019627;28;20210;-83
2021/12/06 08:14:02;;;;;;;49.70;24.93;;;;;;;-1.43;100.00;100659.38;5017789;28;20231;-84
2021/12/06 08:16:31;;;;;;;46.20;22.17;;;;;;;-1.40;100.00;100659.47;5020442;28;20224;-84
2021/12/06 08:18:59;;;;;;;48.47;25.67;;;;;;;-1.38;100.00;100662.91;5017549;28;20210;-83
2021/12/06 08:21:27;;;;;;;48.60;25.20;;;;;;;-1.35;100.00;100660.44;5024109;28;20200;-82
2021/12/06 08:23:55;;;;;;;55.03;23.97;;;;;;;-1.29;100.00;100661.41;5019972;28;20323;-85
2021/12/06 08:26:24;;;;;;;50.70;24.17;;;;;;;-1.31;100.00;100661.38;5020727;28;20207;-81
2021/12/06 08:28:52;;;;;;;52.53;24.77;;;;;;;-1.28;100.00;100661.44;5019766;28;20589;-81
2021/12/06 08:31:19;;;;;;;55.97;25.03;;;;;;;-1.29;100.00;100666.53;5019941;28;20215;-82
2021/12/06 08:33:46;;;;;;;49.50;24.43;;;;;;;-1.26;100.00;100675.13;5016609;28;20231;-84
2021/12/06 08:36:15;;;;;;;53.93;24.67;;;;;;;-1.23;100.00;100674.31;5019040;28;20291;-86
2021/12/06 08:38:42;;;;;;;52.17;25.10;;;;;;;-1.23;100.00;100676.88;5018104;28;20208;-83
2021/12/06 08:41:12;;;;;;;49.13;24.43;;;;;;;-1.25;100.00;100679.44;5026247;28;20208;-83
2021/12/06 08:43:41;;;;;;;56.03;25.20;;;;;;;-1.29;100.00;100681.88;5018820;28;20224;-83
2021/12/06 08:46:11;;;;;;;55.20;25.77;;;;;;;-1.22;100.00;100676.06;5020223;28;20196;-84
2021/12/06 08:48:39;;;;;;;52.47;23.77;;;;;;;-1.21;100.00;100683.78;5021094;28;20823;-83
2021/12/06 08:51:09;;;;;;;51.10;24.27;;;;;;;-1.26;100.00;100684.50;5023150;28;20217;-84
2021/12/06 08:53:38;;;;;;;47.70;23.13;;;;;;;-1.21;100.00;100690.59;5022384;28;20220;-83
2021/12/06 08:56:04;;;;;;;46.63;23.03;;;;;;;-1.25;100.00;100682.00;5019090;28;20209;-83
2021/12/06 08:58:31;;;;;;;48.03;23.10;;;;;;;-1.17;100.00;100677.88;5022588;28;20228;-83
2021/12/06 09:00:57;;;;;;;49.30;24.20;;;;;;;-1.15;100.00;100683.91;5017427;28;20208;-82
2021/12/06 09:03:24;;;;;;;46.33;23.73;;;;;;;-1.12;100.00;100687.38;5020937;28;20227;-82
2021/12/06 09:05:54;;;;;;;47.97;23.03;;;;;;;-1.18;100.00;100694.09;5021919;28;20210;-83
2021/12/06 09:08:23;;;;;;;48.93;23.43;;;;;;;-1.16;100.00;100692.44;5019021;28;20211;-81
2021/12/06 09:10:52;;;;;;;49.53;24.30;;;;;;;-1.12;100.00;100683.13;5018020;28;20212;-82
2021/12/06 09:13:20;;;;;;;42.07;22.27;;;;;;;-1.08;100.00;100691.72;5017873;28;20732;-82
2021/12/06 09:15:46;;;;;;;57.03;24.63;;;;;;;-1.10;100.00;100701.94;5017659;28;20204;-82
2021/12/06 09:18:13;;;;;;;45.97;23.30;;;;;;;-1.10;100.00;100699.38;5018774;28;20204;-84
2021/12/06 09:20:42;;;;;;;47.43;23.97;;;;;;;-1.10;100.00;100706.19;5016388;28;20201;-81
2021/12/06 09:23:12;;;;;;;47.77;23.00;;;;;;;-1.01;100.00;100706.38;5019111;28;20224;-81
2021/12/06 09:25:39;;;;;;;47.93;22.93;;;;;;;-0.99;100.00;100712.41;5019642;28;20228;-82
2021/12/06 09:28:07;;;;;;;42.80;22.20;;;;;;;-0.96;100.00;100710.78;5022036;28;20197;-83
2021/12/06 09:30:35;;;;;;;47.27;22.83;;;;;;;-0.90;100.00;100717.72;5024615;28;20206;-84
2021/12/06 09:33:04;;;;;;;49.63;22.07;;;;;;;-0.85;100.00;100723.81;5023530;28;20232;-82
2021/12/06 09:35:32;;;;;;;43.70;22.30;;;;;;;-0.89;100.00;100716.03;5021735;28;20208;-80
2021/12/06 09:38:00;;;;;;;44.27;21.97;;;;;;;-0.86;100.00;100716.97;5020291;28;20224;-80
2021/12/06 09:40:29;;;;;;;45.03;22.60;;;;;;;-0.85;100.00;100717.84;5012588;28;20216;-80
2021/12/06 09:42:59;;;;;;;47.43;23.00;;;;;;;-0.79;100.00;100717.97;5024568;28;20587;-80
2021/12/06 09:45:30;;;;;;;45.13;22.17;;;;;;;-0.80;100.00;100721.34;5021486;28;20208;-80
2021/12/06 09:47:59;;;;;;;51.23;22.87;;;;;;;-0.83;100.00;100722.13;5022879;28;20207;-80
2021/12/06 09:50:28;;;;;;;41.53;21.67;;;;;;;-0.81;100.00;100728.19;5028528;28;20200;-80
2021/12/06 09:52:58;;;;;;;38.93;20.43;;;;;;;-0.82;100.00;100726.44;5022497;28;20347;-81
2021/12/06 09:55:26;;;;;;;42.60;21.93;;;;;;;-0.72;100.00;100721.50;5023660;28;20216;-81
2021/12/06 09:57:53;;;;;;;43.13;20.57;;;;;;;-0.69;100.00;100726.72;5018087;28;20216;-81
2021/12/06 10:00:22;;;;;;;40.57;21.10;;;;;;;-0.74;100.00;100725.75;5025996;28;20213;-81
2021/12/06 10:02:50;;;;;;;39.83;19.73;;;;;;;-0.69;100.00;100727.56;5025846;28;20204;-81
2021/12/06 10:05:16;;;;;;;41.10;21.27;;;;;;;-0.77;100.00;100729.97;5022428;28;20294;-81
2021/12/06 10:07:43;;;;;;;42.90;21.27;;;;;;;-0.79;100.00;100725.66;5028427;28;20230;-81
2021/12/06 10:10:13;;;;;;;38.00;20.50;;;;;;;-0.74;100.00;100725.75;5030191;28;20212;-81
2021/12/06 10:12:39;;;;;;;36.83;19.73;;;;;;;-0.69;100.00;100735.25;5025127;28;20204;-81
2021/12/06 10:15:07;;;;;;;42.97;20.87;;;;;;;-0.66;100.00;100729.34;5033308;28;20208;-82
2021/12/06 10:17:34;;;;;;;42.87;21.30;;;;;;;-0.75;100.00;100730.00;5024931;28;20217;-81
2021/12/06 10:20:02;;;;;;;38.17;20.20;;;;;;;-0.73;100.00;100730.03;5025348;28;20866;-81
2021/12/06 10:22:29;;;;;;;35.87;19.83;;;;;;;-0.78;100.00;100727.38;5025735;28;20200;-81
2021/12/06 10:24:58;;;;;;;42.40;21.07;;;;;;;-0.78;100.00;100724.81;5019866;28;20575;-81
2021/12/06 10:27:25;;;;;;;39.60;20.33;;;;;;;-0.78;100.00;100729.94;5019371;28;20215;-80
2021/12/06 10:29:54;;;;;;;39.17;18.67;;;;;;;-0.73;100.00;100723.22;5023653;28;20203;-81
2021/12/06 10:32:23;;;;;;;36.23;19.03;;;;;;;-0.80;100.00;100724.78;5024816;28;20243;-81
2021/12/06 10:34:52;;;;;;;39.70;19.10;;;;;;;-0.79;100.00;100720.53;5023166;28;20231;-81
2021/12/06 10:37:36;;;;;;;38.87;19.50;;;;;;;-0.83;100.00;100729.81;5023365;28;20239;-81
2021/12/06 10:40:06;;;;;;;37.87;19.00;;;;;;;-0.76;100.00;100725.72;5022561;28;20686;-81
2021/12/06 10:42:36;;;;;;;38.97;20.13;;;;;;;-0.84;100.00;100724.69;5028621;28;20205;-81
2021/12/06 10:45:07;;;;;;;39.47;19.57;;;;;;;-0.80;100.00;100721.34;5025437;28;20199;-81
2021/12/06 10:47:34;;;;;;;38.80;20.13;;;;;;;-0.81;100.00;100715.38;5027216;28;20196;-81
2021/12/06 10:50:15;;;;;;;37.40;19.63;;;;;;;-0.85;100.00;100710.16;5019779;28;20219;-81
2021/12/06 10:52:51;;;;;;;36.10;18.00;;;;;;;-0.85;100.00;100708.44;5031044;28;20211;-81
2021/12/06 10:55:20;;;;;;;35.30;18.47;;;;;;;-0.81;100.00;100711.94;5024808;28;20207;-82
2021/12/06 10:57:48;;;;;;;35.40;18.13;;;;;;;-0.75;100.00;100714.66;5022020;28;20233;-81
2021/12/06 11:00:32;;;;;;;42.73;19.60;;;;;;;-0.75;100.00;100706.09;5031230;28;20216;-82
2021/12/06 11:03:00;;;;;;;38.10;18.83;;;;;;;-0.81;100.00;100712.81;5031708;28;20224;-82
2021/12/06 11:05:29;;;;;;;46.17;19.40;;;;;;;-0.83;100.00;100714.47;5030510;28;20208;-83
2021/12/06 11:08:10;;;;;;;37.27;19.83;;;;;;;-0.82;100.00;100708.53;5030352;28;20197;-82
2021/12/06 11:10:42;;;;;;;38.87;18.73;;;;;;;-0.87;100.00;100715.22;5028970;28;20204;-83
2021/12/06 11:13:20;;;;;;;35.87;18.40;;;;;;;-0.86;100.00;100716.97;5033103;28;20684;-82
2021/12/06 11:16:02;;;;;;;35.90;18.47;;;;;;;-0.87;100.00;100714.38;5039205;28;20206;-83